sensor_id;sensor_type;location;lat;lon;timestamp;temperature;humidity
22742;DHT22;11538;48.884;8.696;2023-07-31T00:01:29;17.50;99.90
22742;DHT22;11538;48.884;8.696;2023-07-31T00:03:55;17.50;99.90
22742;DHT22;11538;48.884;8.696;2023-07-31T00:06:22;17.50;99.90
22742;DHT22;11538;48.884;8.696;2023-07-31T00:08:49;17.50;99.90
22742;DHT22;11538;48.884;8.696;2023-07-31T00:11:16;17.50;99.90
22742;DHT22;11538;48.884;8.696;2023-07-31T00:13:43;17.40;99.90
22742;DHT22;11538;48.884;8.696;2023-07-31T00:16:10;17.40;99.90
22742;DHT22;11538;48.884;8.696;2023-07-31T00:18:38;17.40;99.90
22742;DHT22;11538;48.884;8.696;2023-07-31T00:21:04;17.40;99.90
22742;DHT22;11538;48.884;8.696;2023-07-31T00:23:31;17.40;99.90
22742;DHT22;11538;48.884;8.696;2023-07-31T00:25:58;17.40;99.90
22742;DHT22;11538;48.884;8.696;2023-07-31T00:28:25;17.40;99.90
22742;DHT22;11538;48.884;8.696;2023-07-31T00:30:53;17.40;99.90
22742;DHT22;11538;48.884;8.696;2023-07-31T00:33:20;17.40;99.90
22742;DHT22;11538;48.884;8.696;2023-07-31T00:35:48;17.40;99.90
22742;DHT22;11538;48.884;8.696;2023-07-31T00:38:15;17.40;99.90
22742;DHT22;11538;48.884;8.696;2023-07-31T00:40:42;17.40;99.90
22742;DHT22;11538;48.884;8.696;2023-07-31T00:43:08;17.40;99.90
22742;DHT22;11538;48.884;8.696;2023-07-31T00:45:36;17.30;99.90
22742;DHT22;11538;48.884;8.696;2023-07-31T00:48:04;17.30;99.90
22742;DHT22;11538;48.884;8.696;2023-07-31T00:50:33;17.30;99.90
22742;DHT22;11538;48.884;8.696;2023-07-31T00:53:01;17.30;99.90
22742;DHT22;11538;48.884;8.696;2023-07-31T00:55:29;17.20;99.90
22742;DHT22;11538;48.884;8.696;2023-07-31T00:57:56;17.30;99.90
22742;DHT22;11538;48.884;8.696;2023-07-31T01:00:24;17.20;99.90
22742;DHT22;11538;48.884;8.696;2023-07-31T01:02:51;17.20;99.90
22742;DHT22;11538;48.884;8.696;2023-07-31T01:05:49;17.20;99.90
22742;DHT22;11538;48.884;8.696;2023-07-31T01:08:39;17.20;99.90
22742;DHT22;11538;48.884;8.696;2023-07-31T01:11:26;17.10;99.90
22742;DHT22;11538;48.884;8.696;2023-07-31T01:13:55;17.10;99.90
22742;DHT22;11538;48.884;8.696;2023-07-31T01:16:24;17.10;99.90
22742;DHT22;11538;48.884;8.696;2023-07-31T01:18:54;17.10;99.90
22742;DHT22;11538;48.884;8.696;2023-07-31T01:24:35;17.00;99.90
22742;DHT22;11538;48.884;8.696;2023-07-31T01:27:23;17.00;99.90
22742;DHT22;11538;48.884;8.696;2023-07-31T01:30:05;16.90;99.90
22742;DHT22;11538;48.884;8.696;2023-07-31T01:32:43;16.90;99.90
22742;DHT22;11538;48.884;8.696;2023-07-31T01:35:13;16.80;99.90
22742;DHT22;11538;48.884;8.696;2023-07-31T01:37:40;16.80;99.90
22742;DHT22;11538;48.884;8.696;2023-07-31T01:40:07;16.80;99.90
22742;DHT22;11538;48.884;8.696;2023-07-31T01:42:35;16.70;99.90
22742;DHT22;11538;48.884;8.696;2023-07-31T01:45:03;16.80;99.90
22742;DHT22;11538;48.884;8.696;2023-07-31T01:47:30;16.80;99.90
22742;DHT22;11538;48.884;8.696;2023-07-31T01:49:57;16.80;99.90
22742;DHT22;11538;48.884;8.696;2023-07-31T01:52:24;16.80;99.90
22742;DHT22;11538;48.884;8.696;2023-07-31T01:54:51;16.80;99.90
22742;DHT22;11538;48.884;8.696;2023-07-31T01:57:18;16.90;99.90
22742;DHT22;11538;48.884;8.696;2023-07-31T01:59:45;16.90;99.90
22742;DHT22;11538;48.884;8.696;2023-07-31T02:02:13;16.90;99.90
22742;DHT22;11538;48.884;8.696;2023-07-31T02:04:40;16.90;99.90
22742;DHT22;11538;48.884;8.696;2023-07-31T02:07:07;16.80;99.90
22742;DHT22;11538;48.884;8.696;2023-07-31T02:09:34;16.80;99.90
22742;DHT22;11538;48.884;8.696;2023-07-31T02:12:01;16.80;99.90
22742;DHT22;11538;48.884;8.696;2023-07-31T02:14:28;16.80;99.90
22742;DHT22;11538;48.884;8.696;2023-07-31T02:16:55;16.80;99.90
22742;DHT22;11538;48.884;8.696;2023-07-31T02:19:22;16.70;99.90
22742;DHT22;11538;48.884;8.696;2023-07-31T02:21:49;16.70;99.90
22742;DHT22;11538;48.884;8.696;2023-07-31T02:24:16;16.70;99.90
22742;DHT22;11538;48.884;8.696;2023-07-31T02:26:43;16.70;99.90
22742;DHT22;11538;48.884;8.696;2023-07-31T02:29:10;16.70;99.90
22742;DHT22;11538;48.884;8.696;2023-07-31T02:31:37;16.60;99.90
22742;DHT22;11538;48.884;8.696;2023-07-31T02:34:04;16.70;99.90
22742;DHT22;11538;48.884;8.696;2023-07-31T02:36:31;16.60;99.90
22742;DHT22;11538;48.884;8.696;2023-07-31T02:38:58;16.70;99.90
22742;DHT22;11538;48.884;8.696;2023-07-31T02:41:25;16.60;99.90
22742;DHT22;11538;48.884;8.696;2023-07-31T02:43:52;16.70;99.90
22742;DHT22;11538;48.884;8.696;2023-07-31T02:46:19;16.70;99.90
22742;DHT22;11538;48.884;8.696;2023-07-31T02:48:47;16.60;99.90
22742;DHT22;11538;48.884;8.696;2023-07-31T02:51:14;16.60;99.90
22742;DHT22;11538;48.884;8.696;2023-07-31T02:53:41;16.60;99.90
22742;DHT22;11538;48.884;8.696;2023-07-31T02:56:08;16.60;99.90
22742;DHT22;11538;48.884;8.696;2023-07-31T02:58:35;16.60;99.90
22742;DHT22;11538;48.884;8.696;2023-07-31T03:01:02;16.60;99.90
22742;DHT22;11538;48.884;8.696;2023-07-31T03:03:29;16.60;99.90
22742;DHT22;11538;48.884;8.696;2023-07-31T03:05:56;16.60;99.90
22742;DHT22;11538;48.884;8.696;2023-07-31T03:08:23;16.50;99.90
22742;DHT22;11538;48.884;8.696;2023-07-31T03:10:50;16.50;99.90
22742;DHT22;11538;48.884;8.696;2023-07-31T03:13:17;16.60;99.90
22742;DHT22;11538;48.884;8.696;2023-07-31T03:15:44;16.60;99.90
22742;DHT22;11538;48.884;8.696;2023-07-31T03:18:11;16.60;99.90
22742;DHT22;11538;48.884;8.696;2023-07-31T03:20:42;16.60;99.90
22742;DHT22;11538;48.884;8.696;2023-07-31T03:23:10;16.60;99.90
22742;DHT22;11538;48.884;8.696;2023-07-31T03:25:37;16.60;99.90
22742;DHT22;11538;48.884;8.696;2023-07-31T03:28:05;16.60;99.90
22742;DHT22;11538;48.884;8.696;2023-07-31T03:30:32;16.60;99.90
22742;DHT22;11538;48.884;8.696;2023-07-31T03:33:01;16.60;99.90
22742;DHT22;11538;48.884;8.696;2023-07-31T03:35:28;16.60;99.90
22742;DHT22;11538;48.884;8.696;2023-07-31T03:37:55;16.60;99.90
22742;DHT22;11538;48.884;8.696;2023-07-31T03:40:23;16.60;99.90
22742;DHT22;11538;48.884;8.696;2023-07-31T03:42:50;16.60;99.90
22742;DHT22;11538;48.884;8.696;2023-07-31T03:45:17;16.60;99.90
22742;DHT22;11538;48.884;8.696;2023-07-31T03:47:44;16.60;99.90
22742;DHT22;11538;48.884;8.696;2023-07-31T03:50:11;16.60;99.90
22742;DHT22;11538;48.884;8.696;2023-07-31T03:52:38;16.60;99.90
22742;DHT22;11538;48.884;8.696;2023-07-31T03:55:05;16.50;99.90
22742;DHT22;11538;48.884;8.696;2023-07-31T03:57:32;16.60;99.90
22742;DHT22;11538;48.884;8.696;2023-07-31T03:59:59;16.60;99.90
22742;DHT22;11538;48.884;8.696;2023-07-31T04:02:26;16.60;99.90
22742;DHT22;11538;48.884;8.696;2023-07-31T04:04:53;16.60;99.90
22742;DHT22;11538;48.884;8.696;2023-07-31T04:07:20;16.60;99.90
22742;DHT22;11538;48.884;8.696;2023-07-31T04:09:47;16.70;99.90
22742;DHT22;11538;48.884;8.696;2023-07-31T04:12:14;16.70;99.90
22742;DHT22;11538;48.884;8.696;2023-07-31T04:14:41;16.70;99.90
22742;DHT22;11538;48.884;8.696;2023-07-31T04:17:08;16.70;99.90
22742;DHT22;11538;48.884;8.696;2023-07-31T04:19:38;16.80;99.90
22742;DHT22;11538;48.884;8.696;2023-07-31T04:22:04;16.80;99.90
22742;DHT22;11538;48.884;8.696;2023-07-31T04:24:32;16.80;99.90
22742;DHT22;11538;48.884;8.696;2023-07-31T04:26:59;16.80;99.90
22742;DHT22;11538;48.884;8.696;2023-07-31T04:29:25;16.80;99.90
22742;DHT22;11538;48.884;8.696;2023-07-31T04:31:52;16.90;99.90
22742;DHT22;11538;48.884;8.696;2023-07-31T04:34:19;16.90;99.90
22742;DHT22;11538;48.884;8.696;2023-07-31T04:36:46;16.90;99.90
22742;DHT22;11538;48.884;8.696;2023-07-31T04:39:13;16.90;99.90
22742;DHT22;11538;48.884;8.696;2023-07-31T04:41:40;16.90;99.90
22742;DHT22;11538;48.884;8.696;2023-07-31T04:44:07;16.90;99.90
22742;DHT22;11538;48.884;8.696;2023-07-31T04:46:34;16.90;99.90
22742;DHT22;11538;48.884;8.696;2023-07-31T04:49:01;16.90;99.90
22742;DHT22;11538;48.884;8.696;2023-07-31T04:51:27;16.90;99.90
22742;DHT22;11538;48.884;8.696;2023-07-31T04:53:55;16.90;99.90
22742;DHT22;11538;48.884;8.696;2023-07-31T04:56:23;16.90;99.90
22742;DHT22;11538;48.884;8.696;2023-07-31T04:58:50;16.90;99.90
22742;DHT22;11538;48.884;8.696;2023-07-31T05:01:17;16.90;99.90
22742;DHT22;11538;48.884;8.696;2023-07-31T05:03:44;16.90;99.90
22742;DHT22;11538;48.884;8.696;2023-07-31T05:06:11;16.90;99.90
22742;DHT22;11538;48.884;8.696;2023-07-31T05:08:39;16.90;99.90
22742;DHT22;11538;48.884;8.696;2023-07-31T05:11:05;16.90;99.90
22742;DHT22;11538;48.884;8.696;2023-07-31T05:13:33;16.90;99.90
22742;DHT22;11538;48.884;8.696;2023-07-31T05:15:59;16.90;99.90
22742;DHT22;11538;48.884;8.696;2023-07-31T05:18:29;16.90;99.90
22742;DHT22;11538;48.884;8.696;2023-07-31T05:20:56;16.90;99.90
22742;DHT22;11538;48.884;8.696;2023-07-31T05:23:24;16.90;99.90
22742;DHT22;11538;48.884;8.696;2023-07-31T05:25:51;16.90;99.90
22742;DHT22;11538;48.884;8.696;2023-07-31T05:28:18;16.90;99.90
22742;DHT22;11538;48.884;8.696;2023-07-31T05:30:45;17.00;99.90
22742;DHT22;11538;48.884;8.696;2023-07-31T05:33:12;17.00;99.90
22742;DHT22;11538;48.884;8.696;2023-07-31T05:35:40;17.00;99.90
22742;DHT22;11538;48.884;8.696;2023-07-31T05:38:08;17.00;99.90
22742;DHT22;11538;48.884;8.696;2023-07-31T05:40:35;17.10;99.90
22742;DHT22;11538;48.884;8.696;2023-07-31T05:43:02;17.10;99.90
22742;DHT22;11538;48.884;8.696;2023-07-31T05:45:29;17.20;99.90
22742;DHT22;11538;48.884;8.696;2023-07-31T05:47:56;17.30;99.90
22742;DHT22;11538;48.884;8.696;2023-07-31T05:50:23;17.30;99.90
22742;DHT22;11538;48.884;8.696;2023-07-31T05:52:50;17.40;99.90
22742;DHT22;11538;48.884;8.696;2023-07-31T05:55:17;17.50;99.90
22742;DHT22;11538;48.884;8.696;2023-07-31T05:57:44;17.50;99.90
22742;DHT22;11538;48.884;8.696;2023-07-31T06:00:13;17.60;99.90
22742;DHT22;11538;48.884;8.696;2023-07-31T06:02:40;17.70;99.90
22742;DHT22;11538;48.884;8.696;2023-07-31T06:05:07;17.70;99.90
22742;DHT22;11538;48.884;8.696;2023-07-31T06:07:34;17.80;99.90
22742;DHT22;11538;48.884;8.696;2023-07-31T06:10:02;17.90;99.90
22742;DHT22;11538;48.884;8.696;2023-07-31T06:12:32;18.00;99.90
22742;DHT22;11538;48.884;8.696;2023-07-31T06:15:00;18.10;99.90
22742;DHT22;11538;48.884;8.696;2023-07-31T06:17:29;18.20;99.90
22742;DHT22;11538;48.884;8.696;2023-07-31T06:19:57;18.30;99.90
22742;DHT22;11538;48.884;8.696;2023-07-31T06:22:24;18.40;99.90
22742;DHT22;11538;48.884;8.696;2023-07-31T06:24:51;18.40;99.90
22742;DHT22;11538;48.884;8.696;2023-07-31T06:27:18;18.50;99.90
22742;DHT22;11538;48.884;8.696;2023-07-31T06:29:45;18.50;99.90
22742;DHT22;11538;48.884;8.696;2023-07-31T06:32:12;18.70;99.90
22742;DHT22;11538;48.884;8.696;2023-07-31T06:34:39;18.70;99.90
22742;DHT22;11538;48.884;8.696;2023-07-31T06:37:09;18.80;99.90
22742;DHT22;11538;48.884;8.696;2023-07-31T06:39:36;18.80;99.90
22742;DHT22;11538;48.884;8.696;2023-07-31T06:42:04;18.90;99.90
22742;DHT22;11538;48.884;8.696;2023-07-31T06:44:31;18.90;99.90
22742;DHT22;11538;48.884;8.696;2023-07-31T06:46:58;18.90;99.90
22742;DHT22;11538;48.884;8.696;2023-07-31T06:49:25;18.90;99.90
22742;DHT22;11538;48.884;8.696;2023-07-31T06:51:52;18.90;99.90
22742;DHT22;11538;48.884;8.696;2023-07-31T06:54:19;19.00;99.90
22742;DHT22;11538;48.884;8.696;2023-07-31T06:56:46;19.10;99.90
22742;DHT22;11538;48.884;8.696;2023-07-31T06:59:13;19.10;99.90
22742;DHT22;11538;48.884;8.696;2023-07-31T07:01:40;19.20;99.90
22742;DHT22;11538;48.884;8.696;2023-07-31T07:04:07;19.30;99.90
22742;DHT22;11538;48.884;8.696;2023-07-31T07:06:34;19.30;99.90
22742;DHT22;11538;48.884;8.696;2023-07-31T07:09:01;19.40;99.90
22742;DHT22;11538;48.884;8.696;2023-07-31T07:11:28;19.40;99.90
22742;DHT22;11538;48.884;8.696;2023-07-31T07:13:55;19.50;99.90
22742;DHT22;11538;48.884;8.696;2023-07-31T07:16:22;19.50;99.90
22742;DHT22;11538;48.884;8.696;2023-07-31T07:18:49;19.60;99.90
22742;DHT22;11538;48.884;8.696;2023-07-31T07:21:30;19.60;99.90
22742;DHT22;11538;48.884;8.696;2023-07-31T07:23:57;19.60;99.90
22742;DHT22;11538;48.884;8.696;2023-07-31T07:26:24;19.70;99.90
22742;DHT22;11538;48.884;8.696;2023-07-31T07:28:51;19.70;99.90
22742;DHT22;11538;48.884;8.696;2023-07-31T07:31:18;19.80;99.90
22742;DHT22;11538;48.884;8.696;2023-07-31T07:33:45;19.80;99.90
22742;DHT22;11538;48.884;8.696;2023-07-31T07:36:12;19.90;99.90
22742;DHT22;11538;48.884;8.696;2023-07-31T07:38:40;20.00;99.90
22742;DHT22;11538;48.884;8.696;2023-07-31T07:41:07;20.10;99.90
22742;DHT22;11538;48.884;8.696;2023-07-31T07:43:34;20.20;99.90
22742;DHT22;11538;48.884;8.696;2023-07-31T07:46:01;20.30;99.90
22742;DHT22;11538;48.884;8.696;2023-07-31T07:48:29;20.40;99.90
22742;DHT22;11538;48.884;8.696;2023-07-31T07:50:55;20.50;99.90
22742;DHT22;11538;48.884;8.696;2023-07-31T07:53:22;20.60;99.90
22742;DHT22;11538;48.884;8.696;2023-07-31T07:55:49;20.60;99.90
22742;DHT22;11538;48.884;8.696;2023-07-31T07:58:16;20.70;99.90
22742;DHT22;11538;48.884;8.696;2023-07-31T08:00:49;20.80;99.90
22742;DHT22;11538;48.884;8.696;2023-07-31T08:03:17;20.90;99.90
22742;DHT22;11538;48.884;8.696;2023-07-31T08:05:45;21.00;99.90
22742;DHT22;11538;48.884;8.696;2023-07-31T08:08:15;21.00;99.90
22742;DHT22;11538;48.884;8.696;2023-07-31T08:10:45;21.10;99.90
22742;DHT22;11538;48.884;8.696;2023-07-31T08:13:12;21.20;99.90
22742;DHT22;11538;48.884;8.696;2023-07-31T08:15:41;21.30;99.90
22742;DHT22;11538;48.884;8.696;2023-07-31T08:18:10;21.50;99.90
22742;DHT22;11538;48.884;8.696;2023-07-31T08:20:38;21.60;99.90
22742;DHT22;11538;48.884;8.696;2023-07-31T08:23:05;21.60;99.90
22742;DHT22;11538;48.884;8.696;2023-07-31T08:25:35;21.60;99.90
22742;DHT22;11538;48.884;8.696;2023-07-31T08:28:03;21.60;99.90
22742;DHT22;11538;48.884;8.696;2023-07-31T08:30:32;21.60;99.90
22742;DHT22;11538;48.884;8.696;2023-07-31T08:33:00;21.60;99.90
22742;DHT22;11538;48.884;8.696;2023-07-31T08:35:28;21.60;99.90
22742;DHT22;11538;48.884;8.696;2023-07-31T08:37:55;21.70;99.90
22742;DHT22;11538;48.884;8.696;2023-07-31T08:40:22;21.70;99.90
22742;DHT22;11538;48.884;8.696;2023-07-31T08:42:52;21.80;99.90
22742;DHT22;11538;48.884;8.696;2023-07-31T08:45:20;21.80;99.90
22742;DHT22;11538;48.884;8.696;2023-07-31T08:47:49;21.80;99.90
22742;DHT22;11538;48.884;8.696;2023-07-31T08:50:19;21.90;99.90
22742;DHT22;11538;48.884;8.696;2023-07-31T08:52:49;21.90;99.90
22742;DHT22;11538;48.884;8.696;2023-07-31T08:55:17;22.00;99.90
22742;DHT22;11538;48.884;8.696;2023-07-31T08:57:51;22.00;99.90
22742;DHT22;11538;48.884;8.696;2023-07-31T09:00:21;22.20;99.90
22742;DHT22;11538;48.884;8.696;2023-07-31T09:03:03;22.30;99.90
22742;DHT22;11538;48.884;8.696;2023-07-31T09:05:36;22.60;99.90
22742;DHT22;11538;48.884;8.696;2023-07-31T09:08:09;22.70;99.90
22742;DHT22;11538;48.884;8.696;2023-07-31T09:10:44;22.70;99.90
22742;DHT22;11538;48.884;8.696;2023-07-31T09:13:16;22.70;99.90
22742;DHT22;11538;48.884;8.696;2023-07-31T09:15:45;22.70;99.90
22742;DHT22;11538;48.884;8.696;2023-07-31T09:18:13;22.60;99.90
22742;DHT22;11538;48.884;8.696;2023-07-31T09:20:43;22.60;99.90
22742;DHT22;11538;48.884;8.696;2023-07-31T09:23:14;22.60;99.90
22742;DHT22;11538;48.884;8.696;2023-07-31T09:25:46;22.60;99.90
22742;DHT22;11538;48.884;8.696;2023-07-31T09:28:13;22.60;99.90
22742;DHT22;11538;48.884;8.696;2023-07-31T09:30:50;22.60;99.90
22742;DHT22;11538;48.884;8.696;2023-07-31T09:33:19;22.70;99.90
22742;DHT22;11538;48.884;8.696;2023-07-31T09:35:49;22.70;99.90
22742;DHT22;11538;48.884;8.696;2023-07-31T09:38:17;22.70;99.90
22742;DHT22;11538;48.884;8.696;2023-07-31T09:40:47;22.80;99.90
22742;DHT22;11538;48.884;8.696;2023-07-31T09:43:19;23.00;99.90
22742;DHT22;11538;48.884;8.696;2023-07-31T09:45:55;23.10;99.90
22742;DHT22;11538;48.884;8.696;2023-07-31T09:48:24;23.30;99.90
22742;DHT22;11538;48.884;8.696;2023-07-31T09:50:54;23.50;99.90
22742;DHT22;11538;48.884;8.696;2023-07-31T09:53:28;23.60;99.90
22742;DHT22;11538;48.884;8.696;2023-07-31T09:55:58;23.80;99.90
22742;DHT22;11538;48.884;8.696;2023-07-31T09:58:28;23.80;99.90
22742;DHT22;11538;48.884;8.696;2023-07-31T10:00:58;23.90;99.90
22742;DHT22;11538;48.884;8.696;2023-07-31T10:03:27;24.00;99.90
22742;DHT22;11538;48.884;8.696;2023-07-31T10:05:57;24.00;99.90
22742;DHT22;11538;48.884;8.696;2023-07-31T10:08:27;24.00;99.90
22742;DHT22;11538;48.884;8.696;2023-07-31T10:10:59;23.90;99.90
22742;DHT22;11538;48.884;8.696;2023-07-31T10:13:29;23.90;99.90
22742;DHT22;11538;48.884;8.696;2023-07-31T10:15:59;23.80;99.90
22742;DHT22;11538;48.884;8.696;2023-07-31T10:18:29;23.80;99.90
22742;DHT22;11538;48.884;8.696;2023-07-31T10:20:57;23.80;99.90
22742;DHT22;11538;48.884;8.696;2023-07-31T10:23:24;23.90;99.90
22742;DHT22;11538;48.884;8.696;2023-07-31T10:25:53;24.10;99.90
22742;DHT22;11538;48.884;8.696;2023-07-31T10:28:21;24.30;99.90
22742;DHT22;11538;48.884;8.696;2023-07-31T10:30:50;24.50;99.90
22742;DHT22;11538;48.884;8.696;2023-07-31T10:33:18;24.60;99.90
22742;DHT22;11538;48.884;8.696;2023-07-31T10:35:47;24.70;99.90
22742;DHT22;11538;48.884;8.696;2023-07-31T10:38:15;24.90;99.90
22742;DHT22;11538;48.884;8.696;2023-07-31T10:40:42;25.00;99.90
22742;DHT22;11538;48.884;8.696;2023-07-31T10:43:24;25.10;99.90
22742;DHT22;11538;48.884;8.696;2023-07-31T10:45:54;25.10;99.90
22742;DHT22;11538;48.884;8.696;2023-07-31T10:48:21;25.10;99.90
22742;DHT22;11538;48.884;8.696;2023-07-31T10:50:56;25.10;99.90
22742;DHT22;11538;48.884;8.696;2023-07-31T10:53:30;25.00;99.90
22742;DHT22;11538;48.884;8.696;2023-07-31T10:55:59;24.90;99.90
22742;DHT22;11538;48.884;8.696;2023-07-31T10:58:27;24.90;99.90
22742;DHT22;11538;48.884;8.696;2023-07-31T11:00:58;24.90;99.90
22742;DHT22;11538;48.884;8.696;2023-07-31T11:03:42;24.90;99.90
22742;DHT22;11538;48.884;8.696;2023-07-31T11:06:19;24.90;99.90
22742;DHT22;11538;48.884;8.696;2023-07-31T11:08:48;24.90;99.90
22742;DHT22;11538;48.884;8.696;2023-07-31T11:11:19;25.00;99.90
22742;DHT22;11538;48.884;8.696;2023-07-31T11:13:49;25.10;99.90
22742;DHT22;11538;48.884;8.696;2023-07-31T11:16:19;25.00;99.90
22742;DHT22;11538;48.884;8.696;2023-07-31T11:18:49;24.90;99.90
22742;DHT22;11538;48.884;8.696;2023-07-31T11:21:20;24.90;99.90
22742;DHT22;11538;48.884;8.696;2023-07-31T11:23:49;24.90;99.90
22742;DHT22;11538;48.884;8.696;2023-07-31T11:26:19;24.80;99.90
22742;DHT22;11538;48.884;8.696;2023-07-31T11:28:47;24.80;99.90
22742;DHT22;11538;48.884;8.696;2023-07-31T11:31:16;24.90;99.90
22742;DHT22;11538;48.884;8.696;2023-07-31T11:33:44;25.10;99.90
22742;DHT22;11538;48.884;8.696;2023-07-31T11:36:16;25.30;99.90
22742;DHT22;11538;48.884;8.696;2023-07-31T11:38:45;25.30;99.90
22742;DHT22;11538;48.884;8.696;2023-07-31T11:41:14;25.30;99.90
22742;DHT22;11538;48.884;8.696;2023-07-31T11:43:46;25.20;99.90
22742;DHT22;11538;48.884;8.696;2023-07-31T11:46:14;25.10;99.90
22742;DHT22;11538;48.884;8.696;2023-07-31T11:48:42;25.10;99.90
22742;DHT22;11538;48.884;8.696;2023-07-31T11:51:10;25.10;99.90
22742;DHT22;11538;48.884;8.696;2023-07-31T11:53:50;25.00;99.90
22742;DHT22;11538;48.884;8.696;2023-07-31T11:56:21;24.90;99.90
22742;DHT22;11538;48.884;8.696;2023-07-31T11:58:55;24.80;99.90
22742;DHT22;11538;48.884;8.696;2023-07-31T12:01:26;24.80;99.90
22742;DHT22;11538;48.884;8.696;2023-07-31T12:03:54;24.90;99.90
22742;DHT22;11538;48.884;8.696;2023-07-31T12:06:33;24.90;99.90
22742;DHT22;11538;48.884;8.696;2023-07-31T12:09:04;24.90;99.90
22742;DHT22;11538;48.884;8.696;2023-07-31T12:11:46;24.90;99.90
22742;DHT22;11538;48.884;8.696;2023-07-31T12:14:29;24.90;99.90
22742;DHT22;11538;48.884;8.696;2023-07-31T12:17:03;24.80;99.90
22742;DHT22;11538;48.884;8.696;2023-07-31T12:19:32;24.90;99.90
22742;DHT22;11538;48.884;8.696;2023-07-31T12:21:59;25.00;99.90
22742;DHT22;11538;48.884;8.696;2023-07-31T12:24:27;25.10;99.90
22742;DHT22;11538;48.884;8.696;2023-07-31T12:26:54;25.30;99.90
22742;DHT22;11538;48.884;8.696;2023-07-31T12:29:21;25.40;99.90
22742;DHT22;11538;48.884;8.696;2023-07-31T12:31:49;25.40;99.90
22742;DHT22;11538;48.884;8.696;2023-07-31T12:34:17;25.50;99.90
22742;DHT22;11538;48.884;8.696;2023-07-31T12:36:45;25.70;99.90
22742;DHT22;11538;48.884;8.696;2023-07-31T12:39:13;25.80;99.90
22742;DHT22;11538;48.884;8.696;2023-07-31T12:41:40;26.40;99.90
22742;DHT22;11538;48.884;8.696;2023-07-31T12:44:07;27.00;99.90
22742;DHT22;11538;48.884;8.696;2023-07-31T12:46:36;27.20;99.90
22742;DHT22;11538;48.884;8.696;2023-07-31T12:49:04;27.20;99.90
22742;DHT22;11538;48.884;8.696;2023-07-31T12:51:31;27.00;99.90
22742;DHT22;11538;48.884;8.696;2023-07-31T12:53:59;26.80;99.90
22742;DHT22;11538;48.884;8.696;2023-07-31T12:56:25;26.60;99.90
22742;DHT22;11538;48.884;8.696;2023-07-31T12:58:52;26.50;99.90
22742;DHT22;11538;48.884;8.696;2023-07-31T13:01:19;26.50;99.90
22742;DHT22;11538;48.884;8.696;2023-07-31T13:03:46;26.50;99.90
22742;DHT22;11538;48.884;8.696;2023-07-31T13:06:13;26.50;99.90
22742;DHT22;11538;48.884;8.696;2023-07-31T13:08:40;26.50;99.90
22742;DHT22;11538;48.884;8.696;2023-07-31T13:11:07;26.40;99.90
22742;DHT22;11538;48.884;8.696;2023-07-31T13:13:35;26.30;99.90
22742;DHT22;11538;48.884;8.696;2023-07-31T13:16:02;26.20;99.90
22742;DHT22;11538;48.884;8.696;2023-07-31T13:18:29;26.20;99.90
22742;DHT22;11538;48.884;8.696;2023-07-31T13:20:56;26.10;99.90
22742;DHT22;11538;48.884;8.696;2023-07-31T13:23:23;26.00;99.90
22742;DHT22;11538;48.884;8.696;2023-07-31T13:25:50;25.80;99.90
22742;DHT22;11538;48.884;8.696;2023-07-31T13:28:17;25.70;99.90
22742;DHT22;11538;48.884;8.696;2023-07-31T13:30:43;25.60;99.90
22742;DHT22;11538;48.884;8.696;2023-07-31T13:33:10;25.50;99.90
22742;DHT22;11538;48.884;8.696;2023-07-31T13:35:55;25.40;99.90
22742;DHT22;11538;48.884;8.696;2023-07-31T13:38:22;25.40;99.90
22742;DHT22;11538;48.884;8.696;2023-07-31T13:40:49;25.40;99.90
22742;DHT22;11538;48.884;8.696;2023-07-31T13:43:16;25.40;99.90
22742;DHT22;11538;48.884;8.696;2023-07-31T13:45:43;25.50;99.90
22742;DHT22;11538;48.884;8.696;2023-07-31T13:48:10;25.70;99.90
22742;DHT22;11538;48.884;8.696;2023-07-31T13:50:37;25.80;99.90
22742;DHT22;11538;48.884;8.696;2023-07-31T13:53:04;25.90;99.90
22742;DHT22;11538;48.884;8.696;2023-07-31T13:55:31;25.90;99.90
22742;DHT22;11538;48.884;8.696;2023-07-31T13:57:58;25.90;99.90
22742;DHT22;11538;48.884;8.696;2023-07-31T14:00:25;25.90;99.90
22742;DHT22;11538;48.884;8.696;2023-07-31T14:02:52;26.10;99.90
22742;DHT22;11538;48.884;8.696;2023-07-31T14:05:19;26.20;99.90
22742;DHT22;11538;48.884;8.696;2023-07-31T14:07:46;26.30;99.90
22742;DHT22;11538;48.884;8.696;2023-07-31T14:10:13;26.20;99.90
22742;DHT22;11538;48.884;8.696;2023-07-31T14:12:40;26.10;99.90
22742;DHT22;11538;48.884;8.696;2023-07-31T14:15:09;26.00;99.90
22742;DHT22;11538;48.884;8.696;2023-07-31T14:17:37;26.00;99.90
22742;DHT22;11538;48.884;8.696;2023-07-31T14:20:05;25.80;99.90
22742;DHT22;11538;48.884;8.696;2023-07-31T14:22:33;25.80;99.90
22742;DHT22;11538;48.884;8.696;2023-07-31T14:25:01;25.70;99.90
22742;DHT22;11538;48.884;8.696;2023-07-31T14:27:28;25.60;99.90
22742;DHT22;11538;48.884;8.696;2023-07-31T14:29:55;25.60;99.90
22742;DHT22;11538;48.884;8.696;2023-07-31T14:32:23;25.60;99.90
22742;DHT22;11538;48.884;8.696;2023-07-31T14:34:51;25.50;99.90
22742;DHT22;11538;48.884;8.696;2023-07-31T14:37:18;25.50;99.90
22742;DHT22;11538;48.884;8.696;2023-07-31T14:39:45;25.40;99.90
22742;DHT22;11538;48.884;8.696;2023-07-31T14:42:12;25.30;99.90
22742;DHT22;11538;48.884;8.696;2023-07-31T14:44:39;25.20;99.90
22742;DHT22;11538;48.884;8.696;2023-07-31T14:47:06;25.10;99.90
22742;DHT22;11538;48.884;8.696;2023-07-31T14:49:33;25.10;99.90
22742;DHT22;11538;48.884;8.696;2023-07-31T14:52:00;25.00;99.90
22742;DHT22;11538;48.884;8.696;2023-07-31T14:54:27;24.90;99.90
22742;DHT22;11538;48.884;8.696;2023-07-31T14:56:54;24.90;99.90
22742;DHT22;11538;48.884;8.696;2023-07-31T14:59:21;25.00;99.90
22742;DHT22;11538;48.884;8.696;2023-07-31T15:01:47;25.00;99.90
22742;DHT22;11538;48.884;8.696;2023-07-31T15:04:14;25.00;99.90
22742;DHT22;11538;48.884;8.696;2023-07-31T15:06:41;25.00;99.90
22742;DHT22;11538;48.884;8.696;2023-07-31T15:09:08;25.00;99.90
22742;DHT22;11538;48.884;8.696;2023-07-31T15:11:35;25.10;99.90
22742;DHT22;11538;48.884;8.696;2023-07-31T15:14:02;25.00;99.90
22742;DHT22;11538;48.884;8.696;2023-07-31T15:16:29;25.00;99.90
22742;DHT22;11538;48.884;8.696;2023-07-31T15:18:58;25.00;99.90
22742;DHT22;11538;48.884;8.696;2023-07-31T15:21:25;25.00;99.90
22742;DHT22;11538;48.884;8.696;2023-07-31T15:23:52;25.00;99.90
22742;DHT22;11538;48.884;8.696;2023-07-31T15:26:19;25.00;99.90
22742;DHT22;11538;48.884;8.696;2023-07-31T15:28:50;25.10;99.90
22742;DHT22;11538;48.884;8.696;2023-07-31T15:31:23;25.10;99.90
22742;DHT22;11538;48.884;8.696;2023-07-31T15:33:50;25.10;99.90
22742;DHT22;11538;48.884;8.696;2023-07-31T15:36:17;25.10;99.90
22742;DHT22;11538;48.884;8.696;2023-07-31T15:38:44;25.20;99.90
22742;DHT22;11538;48.884;8.696;2023-07-31T15:41:11;25.20;99.90